createdAt,value
2022-12-04T00:00:27.453Z,58.40
2022-12-04T00:02:54.338Z,58.71
2022-12-04T00:05:21.432Z,56.61
2022-12-04T00:07:48.343Z,58.46
2022-12-04T00:10:15.303Z,59.58
2022-12-04T00:12:42.170Z,59.25
2022-12-04T00:15:25.329Z,59.31
2022-12-04T00:17:53.060Z,57.54
2022-12-04T00:20:20.048Z,59.63
2022-12-04T00:22:46.920Z,58.14
2022-12-04T00:25:13.747Z,59.84
2022-12-04T00:27:40.850Z,57.32
2022-12-04T00:30:08.181Z,59.55
2022-12-04T00:32:35.882Z,58.00
2022-12-04T00:35:03.032Z,58.46
2022-12-04T00:37:29.851Z,58.14
2022-12-04T00:39:56.931Z,58.05
2022-12-04T00:42:24.265Z,58.02
2022-12-04T00:44:51.290Z,58.76
2022-12-04T00:47:18.326Z,58.16
2022-12-04T00:49:45.360Z,59.65
2022-12-04T00:52:12.170Z,57.14
2022-12-04T00:54:39.012Z,58.11
2022-12-04T00:57:05.998Z,58.22
2022-12-04T00:59:32.846Z,57.85
2022-12-04T01:01:59.851Z,57.32
2022-12-04T01:04:26.687Z,59.12
2022-12-04T01:06:53.677Z,58.73
2022-12-04T01:09:20.697Z,60.43
2022-12-04T01:11:47.527Z,62.05
2022-12-04T01:14:14.385Z,60.62
2022-12-04T01:16:41.554Z,60.36
2022-12-04T01:19:11.581Z,59.45
2022-12-04T01:21:39.350Z,59.99
2022-12-04T01:24:06.950Z,60.08
2022-12-04T01:26:34.190Z,58.77
2022-12-04T01:29:01.790Z,59.92
2022-12-04T01:31:28.999Z,60.26
2022-12-04T01:33:56.055Z,58.44
2022-12-04T01:36:26.507Z,58.55
2022-12-04T01:38:54.314Z,59.58
2022-12-04T01:41:24.801Z,59.82
2022-12-04T01:44:16.234Z,59.69
2022-12-04T01:46:46.214Z,58.53
2022-12-04T01:49:26.057Z,56.65
2022-12-04T01:52:02.168Z,58.73
2022-12-04T01:54:34.438Z,60.23
2022-12-04T01:57:16.750Z,59.57
2022-12-04T02:00:00.001Z,58.86
2022-12-04T02:02:34.766Z,59.49
2022-12-04T02:05:03.862Z,60.21
2022-12-04T02:07:32.151Z,62.77
2022-12-04T02:10:03.756Z,61.93
2022-12-04T02:13:04.590Z,61.77
2022-12-04T02:15:59.439Z,60.73
2022-12-04T02:18:46.024Z,59.58
2022-12-04T02:21:34.106Z,60.73
2022-12-04T02:24:46.785Z,62.72
2022-12-04T02:27:50.975Z,59.39
2022-12-04T02:30:18.439Z,60.88
2022-12-04T02:33:00.219Z,63.04
2022-12-04T02:35:42.596Z,62.89
2022-12-04T02:38:27.940Z,60.91
2022-12-04T02:41:14.303Z,61.03
2022-12-04T02:43:48.433Z,61.62
2022-12-04T02:46:38.976Z,61.99
2022-12-04T02:49:14.393Z,57.70
2022-12-04T02:51:46.492Z,62.57
2022-12-04T02:54:30.176Z,64.41
2022-12-04T02:56:59.928Z,60.49
2022-12-04T02:59:35.599Z,63.24
2022-12-04T03:02:17.962Z,63.06
2022-12-04T03:04:50.508Z,64.50
2022-12-04T03:07:45.856Z,66.50
2022-12-04T03:10:35.915Z,64.30
2022-12-04T03:13:18.395Z,65.94
2022-12-04T03:15:50.678Z,63.43
2022-12-04T03:18:32.918Z,63.06
2022-12-04T03:21:06.394Z,64.30
2022-12-04T03:23:42.608Z,64.31
2022-12-04T03:26:30.297Z,65.61
2022-12-04T03:29:03.116Z,63.58
2022-12-04T03:32:01.303Z,62.11
2022-12-04T03:34:38.015Z,63.97
2022-12-04T03:37:15.538Z,62.82
2022-12-04T03:39:56.205Z,63.89
2022-12-04T03:42:28.903Z,64.97
2022-12-04T03:45:06.480Z,62.41
2022-12-04T03:47:45.030Z,63.38
2022-12-04T03:50:28.771Z,63.04
2022-12-04T03:53:08.779Z,66.07
2022-12-04T03:55:50.038Z,63.70
2022-12-04T03:58:28.875Z,64.21
2022-12-04T04:01:09.247Z,64.41
2022-12-04T04:03:48.733Z,65.79
2022-12-04T04:06:55.727Z,62.87
2022-12-04T04:09:27.320Z,63.94
2022-12-04T04:12:02.835Z,62.56
2022-12-04T04:15:15.728Z,65.49
2022-12-04T04:18:06.096Z,63.69
2022-12-04T04:21:15.667Z,64.38
2022-12-04T04:24:07.227Z,63.68
2022-12-04T04:26:41.518Z,61.76
2022-12-04T04:29:10.244Z,62.60
2022-12-04T04:32:06.922Z,62.60
2022-12-04T04:34:47.334Z,60.95
2022-12-04T04:37:23.345Z,62.35
2022-12-04T04:40:18.319Z,62.41
2022-12-04T04:43:04.334Z,61.73
2022-12-04T04:45:37.140Z,62.09
2022-12-04T04:48:17.469Z,59.78
2022-12-04T04:50:46.023Z,62.62
2022-12-04T04:53:20.043Z,59.56
2022-12-04T04:55:48.250Z,58.96
2022-12-04T04:58:19.297Z,57.07
2022-12-04T05:00:55.241Z,59.57
2022-12-04T05:03:22.351Z,59.43
2022-12-04T05:05:49.314Z,56.69
2022-12-04T05:08:16.549Z,58.85
2022-12-04T05:10:43.529Z,58.37
2022-12-04T05:13:13.341Z,58.49
2022-12-04T05:15:40.903Z,58.29
2022-12-04T05:18:09.197Z,57.26
2022-12-04T05:20:40.150Z,56.32
2022-12-04T05:23:07.355Z,57.54
2022-12-04T05:25:34.449Z,58.35
2022-12-04T05:28:01.367Z,56.27
2022-12-04T05:30:28.337Z,55.73
2022-12-04T05:32:55.480Z,56.70
2022-12-04T05:35:22.607Z,56.02
2022-12-04T05:37:49.661Z,56.53
2022-12-04T05:40:16.734Z,55.28
2022-12-04T05:42:43.663Z,53.74
2022-12-04T05:45:10.630Z,55.95
2022-12-04T05:47:39.386Z,54.58
2022-12-04T05:50:08.330Z,54.12
2022-12-04T05:52:35.464Z,53.39
2022-12-04T05:55:02.493Z,53.03
2022-12-04T05:57:30.175Z,53.97
2022-12-04T05:59:57.521Z,51.31
2022-12-04T06:02:24.664Z,50.96
2022-12-04T06:04:51.591Z,51.30
2022-12-04T06:07:18.705Z,50.87
2022-12-04T06:09:45.584Z,52.03
2022-12-04T06:12:12.463Z,51.55
2022-12-04T06:14:40.164Z,52.88
2022-12-04T06:17:07.507Z,51.59
2022-12-04T06:19:34.422Z,50.94
2022-12-04T06:22:01.299Z,52.24
2022-12-04T06:24:28.192Z,50.23
2022-12-04T06:29:46.655Z,48.88
2022-12-04T06:32:19.489Z,49.60
2022-12-04T06:34:51.898Z,50.24
2022-12-04T06:37:21.812Z,50.18
2022-12-04T06:39:49.517Z,48.75
2022-12-04T06:42:17.361Z,50.62
2022-12-04T06:44:44.314Z,49.50
2022-12-04T06:47:11.375Z,49.59
2022-12-04T06:49:38.596Z,47.65
2022-12-04T06:52:05.687Z,49.62
2022-12-04T06:54:32.770Z,50.27
2022-12-04T06:56:59.683Z,47.28
2022-12-04T06:59:27.861Z,45.87
2022-12-04T07:01:55.033Z,46.84
2022-12-04T07:04:23.205Z,45.55
2022-12-04T07:06:50.248Z,44.00
2022-12-04T07:09:18.017Z,44.34
2022-12-04T07:11:45.692Z,45.11
2022-12-04T07:14:13.887Z,43.16
2022-12-04T07:16:42.856Z,42.68
2022-12-04T07:19:13.308Z,42.13
2022-12-04T07:21:40.527Z,43.39
2022-12-04T07:24:07.522Z,41.88
2022-12-04T07:26:34.603Z,43.04
2022-12-04T07:29:01.727Z,41.62
2022-12-04T07:31:29.674Z,44.05
2022-12-04T07:33:58.305Z,42.89
2022-12-04T07:36:26.119Z,43.82
2022-12-04T07:38:55.329Z,41.76
2022-12-04T07:41:22.494Z,43.95
2022-12-04T07:43:49.634Z,41.82
2022-12-04T07:46:23.255Z,41.74
2022-12-04T07:48:50.375Z,41.39
2022-12-04T07:51:21.201Z,42.98
2022-12-04T07:53:49.601Z,42.49
2022-12-04T07:56:17.977Z,42.18
2022-12-04T07:58:45.926Z,41.20
2022-12-04T08:01:14.905Z,39.62
2022-12-04T08:03:47.976Z,40.84
2022-12-04T08:06:18.125Z,39.52
2022-12-04T08:08:46.240Z,40.95
2022-12-04T08:11:16.353Z,40.97
2022-12-04T08:13:44.001Z,41.16
2022-12-04T08:16:12.306Z,40.99
2022-12-04T08:18:39.959Z,42.07
2022-12-04T08:21:08.133Z,42.55
2022-12-04T08:23:36.762Z,43.88
2022-12-04T08:26:04.726Z,41.09
2022-12-04T08:28:32.860Z,41.21
2022-12-04T08:31:06.172Z,41.00
2022-12-04T08:33:34.504Z,42.70
2022-12-04T08:36:02.318Z,45.04
2022-12-04T08:38:29.237Z,48.42
2022-12-04T08:41:00.436Z,47.01
2022-12-04T08:43:27.712Z,45.49
2022-12-04T08:46:07.877Z,44.88
2022-12-04T08:48:35.280Z,46.59
2022-12-04T08:51:04.368Z,50.35
2022-12-04T08:53:32.309Z,46.65
2022-12-04T08:56:01.419Z,45.89
2022-12-04T08:58:28.430Z,49.16
2022-12-04T09:00:55.403Z,49.95
2022-12-04T09:03:29.183Z,52.53
2022-12-04T09:06:02.724Z,49.79
2022-12-04T09:08:31.301Z,51.15
2022-12-04T09:11:06.246Z,52.46
2022-12-04T09:13:33.452Z,54.60
2022-12-04T09:16:05.057Z,54.34
2022-12-04T09:18:32.320Z,55.60
2022-12-04T09:21:01.777Z,52.98
2022-12-04T09:23:28.674Z,55.68
2022-12-04T09:25:55.578Z,53.10
2022-12-04T09:28:22.776Z,51.29
2022-12-04T09:31:01.759Z,50.74
2022-12-04T09:33:28.956Z,51.99
2022-12-04T09:35:59.132Z,52.36
2022-12-04T09:38:27.463Z,55.85
2022-12-04T09:41:13.253Z,53.90
2022-12-04T09:43:46.065Z,53.19
2022-12-04T09:46:26.162Z,48.54
2022-12-04T09:48:59.130Z,48.75
2022-12-04T09:51:28.350Z,50.22
2022-12-04T09:54:02.925Z,50.23
2022-12-04T09:56:32.027Z,51.05
2022-12-04T09:59:19.292Z,56.82
2022-12-04T10:01:51.757Z,51.68
2022-12-04T10:04:19.175Z,52.75
2022-12-04T10:07:00.063Z,51.12
2022-12-04T10:09:39.983Z,56.50
2022-12-04T10:12:13.968Z,54.27
2022-12-04T10:15:10.499Z,53.04
2022-12-04T10:17:50.484Z,65.03
2022-12-04T10:20:44.318Z,55.67
2022-12-04T10:23:38.786Z,45.05
2022-12-04T10:26:15.734Z,46.67
2022-12-04T10:28:55.417Z,50.56
2022-12-04T10:31:26.321Z,49.89
2022-12-04T10:34:05.443Z,46.41
2022-12-04T10:36:34.983Z,44.53
2022-12-04T10:39:16.352Z,45.97
2022-12-04T10:41:57.875Z,41.39
2022-12-04T10:44:25.103Z,42.16
2022-12-04T10:46:58.322Z,41.92
2022-12-04T10:49:34.996Z,43.57
2022-12-04T10:52:02.215Z,42.42
2022-12-04T10:54:29.140Z,41.34
2022-12-04T10:56:58.924Z,42.35
2022-12-04T10:59:27.177Z,43.50
2022-12-04T11:02:12.233Z,41.78
2022-12-04T11:04:41.858Z,41.54
2022-12-04T11:07:26.125Z,45.93
2022-12-04T11:10:05.763Z,47.15
2022-12-04T11:12:33.869Z,49.40
2022-12-04T11:15:21.195Z,50.01
2022-12-04T11:17:48.239Z,50.32
2022-12-04T11:20:20.401Z,52.44
2022-12-04T11:22:54.763Z,53.74
2022-12-04T11:25:25.042Z,50.30
2022-12-04T11:27:55.701Z,46.83
2022-12-04T11:30:30.747Z,46.16
2022-12-04T11:32:59.711Z,43.88
2022-12-04T11:35:29.966Z,45.31
2022-12-04T11:38:13.441Z,45.39
2022-12-04T11:40:50.367Z,47.16
2022-12-04T11:43:18.626Z,46.83
2022-12-04T11:46:00.894Z,48.58
2022-12-04T11:48:31.527Z,50.87
2022-12-04T11:51:42.799Z,50.72
2022-12-04T11:54:31.516Z,50.07
2022-12-04T11:57:37.246Z,45.14
2022-12-04T12:00:20.912Z,41.38
2022-12-04T12:02:48.001Z,39.10
2022-12-04T12:05:32.995Z,39.54
2022-12-04T12:08:21.443Z,39.35
2022-12-04T12:11:10.494Z,39.64
2022-12-04T12:13:49.345Z,40.38
2022-12-04T12:16:40.962Z,40.18
2022-12-04T12:19:39.774Z,37.54
2022-12-04T12:22:34.246Z,42.38
2022-12-04T12:25:26.058Z,43.34
2022-12-04T12:28:13.271Z,45.45
2022-12-04T12:31:08.714Z,44.36
2022-12-04T12:33:55.851Z,43.12
2022-12-04T12:36:30.823Z,44.53
2022-12-04T12:39:11.048Z,44.37
2022-12-04T12:41:53.483Z,43.95
2022-12-04T12:44:28.948Z,45.01
2022-12-04T12:47:05.636Z,45.06
2022-12-04T12:49:59.681Z,42.06
2022-12-04T12:52:43.608Z,42.83
2022-12-04T12:55:17.740Z,45.40
2022-12-04T12:58:08.611Z,45.26
2022-12-04T13:00:46.866Z,50.20
2022-12-04T13:03:29.250Z,46.00
2022-12-04T13:06:03.272Z,45.19
2022-12-04T13:08:56.195Z,47.23
2022-12-04T13:11:27.499Z,45.65
2022-12-04T13:13:58.051Z,47.39
2022-12-04T13:16:47.770Z,48.14
2022-12-04T13:19:37.010Z,46.25
2022-12-04T13:22:57.892Z,51.25
2022-12-04T13:25:31.389Z,46.82
2022-12-04T13:28:36.379Z,47.10
2022-12-04T13:31:10.380Z,49.47
2022-12-04T13:33:55.218Z,51.84
2022-12-04T13:36:57.474Z,54.63
2022-12-04T13:39:24.495Z,48.79
2022-12-04T13:42:00.771Z,46.41
2022-12-04T13:44:31.276Z,48.12
2022-12-04T13:47:06.143Z,48.77
2022-12-04T13:49:42.085Z,48.38
2022-12-04T13:52:40.717Z,47.93
2022-12-04T13:55:28.829Z,45.51
2022-12-04T13:58:02.804Z,45.93
2022-12-04T14:00:36.156Z,42.04
2022-12-04T14:03:06.809Z,40.73
2022-12-04T14:05:43.804Z,40.86
2022-12-04T14:08:19.937Z,41.68
2022-12-04T14:10:57.671Z,39.06
2022-12-04T14:13:35.816Z,38.96
2022-12-04T14:16:08.050Z,43.75
2022-12-04T14:18:35.596Z,42.59
2022-12-04T14:21:05.673Z,40.35
2022-12-04T14:23:39.141Z,39.61
2022-12-04T14:27:10.712Z,39.99
2022-12-04T14:29:28.367Z,39.35
2022-12-04T14:32:00.483Z,36.81
2022-12-04T14:34:31.783Z,36.89
2022-12-04T14:37:01.706Z,36.85
2022-12-04T14:39:45.156Z,37.42
2022-12-04T14:42:14.717Z,37.88
2022-12-04T14:44:45.146Z,39.77
2022-12-04T14:47:32.970Z,41.96
2022-12-04T14:50:28.770Z,40.69
2022-12-04T14:53:31.381Z,41.03
2022-12-04T14:56:26.102Z,40.58
2022-12-04T14:58:54.998Z,38.70
2022-12-04T15:01:29.456Z,39.52
2022-12-04T15:04:01.158Z,39.17
2022-12-04T15:06:31.392Z,37.54
2022-12-04T15:09:20.301Z,36.88
2022-12-04T15:12:15.593Z,37.70
2022-12-04T15:14:44.881Z,37.23
2022-12-04T15:17:13.677Z,36.06
2022-12-04T15:19:40.627Z,38.84
2022-12-04T15:22:33.981Z,35.16
2022-12-04T15:25:01.343Z,35.36
2022-12-04T15:27:32.628Z,36.49
2022-12-04T15:30:02.610Z,36.56
2022-12-04T15:32:31.907Z,35.54
2022-12-04T15:35:08.945Z,35.22
2022-12-04T15:37:36.727Z,34.53
2022-12-04T15:40:08.591Z,37.23
2022-12-04T15:42:35.494Z,35.98
2022-12-04T15:45:08.202Z,34.97
2022-12-04T15:47:51.543Z,35.43
2022-12-04T15:50:18.496Z,36.97
2022-12-04T15:53:03.150Z,41.35
2022-12-04T15:55:38.199Z,38.03
2022-12-04T15:58:20.811Z,36.73
2022-12-04T16:00:56.176Z,36.49
2022-12-04T16:03:32.153Z,37.07
2022-12-04T16:06:23.276Z,38.96
2022-12-04T16:08:59.520Z,35.94
2022-12-04T16:11:38.269Z,35.56
2022-12-04T16:14:08.304Z,35.73
2022-12-04T16:16:42.178Z,35.49
2022-12-04T16:19:15.956Z,37.94
2022-12-04T16:21:43.559Z,39.40
2022-12-04T16:24:13.826Z,38.42
2022-12-04T16:26:41.746Z,38.34
2022-12-04T16:29:08.775Z,38.35
2022-12-04T16:31:37.912Z,37.72
2022-12-04T16:34:05.114Z,36.80
2022-12-04T16:36:32.197Z,38.90
2022-12-04T16:38:59.022Z,39.36
2022-12-04T16:41:26.073Z,37.63
2022-12-04T16:43:56.806Z,37.34
2022-12-04T16:46:27.098Z,40.14
2022-12-04T16:48:54.539Z,39.30
2022-12-04T16:51:25.348Z,40.43
2022-12-04T16:53:53.039Z,39.07
2022-12-04T16:56:20.856Z,41.34
2022-12-04T16:58:47.966Z,39.06
2022-12-04T17:01:25.141Z,37.58
2022-12-04T17:03:52.587Z,38.29
2022-12-04T17:06:19.986Z,36.96
2022-12-04T17:08:47.005Z,38.24
2022-12-04T17:11:17.171Z,43.91
2022-12-04T17:13:44.315Z,37.72
2022-12-04T17:16:14.788Z,38.45
2022-12-04T17:18:43.686Z,39.90
2022-12-04T17:21:12.900Z,38.81
2022-12-04T17:23:40.557Z,37.12
2022-12-04T17:26:10.393Z,36.21
2022-12-04T17:28:38.246Z,35.48
2022-12-04T17:31:17.607Z,36.11
2022-12-04T17:33:46.340Z,35.39
2022-12-04T17:36:18.990Z,35.82
2022-12-04T17:38:46.266Z,37.44
2022-12-04T17:41:15.273Z,37.44
2022-12-04T17:43:43.792Z,34.77
2022-12-04T17:46:18.807Z,36.05
2022-12-04T17:48:45.967Z,36.78
2022-12-04T17:51:20.050Z,35.71
2022-12-04T17:53:47.259Z,36.74
2022-12-04T17:56:17.487Z,36.24
2022-12-04T17:58:45.804Z,36.77
2022-12-04T18:01:22.852Z,36.20
2022-12-04T18:03:52.239Z,37.03
2022-12-04T18:06:22.802Z,38.28
2022-12-04T18:08:50.608Z,38.15
2022-12-04T18:11:23.472Z,43.18
2022-12-04T18:13:57.037Z,41.81
2022-12-04T18:16:25.364Z,40.91
2022-12-04T18:18:56.860Z,41.75
2022-12-04T18:21:24.429Z,39.06
2022-12-04T18:23:51.859Z,39.06
2022-12-04T18:26:21.572Z,39.54
2022-12-04T18:28:49.568Z,41.37
2022-12-04T18:31:19.123Z,39.59
2022-12-04T18:33:47.292Z,39.49
2022-12-04T18:36:17.665Z,39.42
2022-12-04T18:38:45.963Z,42.91
2022-12-04T18:41:14.815Z,42.97
2022-12-04T18:43:44.482Z,43.88
2022-12-04T18:46:14.627Z,41.15
2022-12-04T18:48:43.414Z,43.12
2022-12-04T18:51:31.905Z,43.28
2022-12-04T18:54:02.172Z,42.76
2022-12-04T18:56:30.726Z,42.47
2022-12-04T18:58:59.513Z,40.06
2022-12-04T19:01:27.631Z,44.26
2022-12-04T19:04:01.125Z,44.24
2022-12-04T19:06:30.483Z,41.64
2022-12-04T19:09:00.670Z,42.06
2022-12-04T19:11:28.546Z,41.99
2022-12-04T19:13:55.637Z,43.52
2022-12-04T19:16:22.585Z,42.11
2022-12-04T19:18:49.679Z,41.29
2022-12-04T19:21:17.670Z,43.75
2022-12-04T19:23:51.013Z,41.68
2022-12-04T19:26:18.184Z,43.30
2022-12-04T19:28:45.210Z,44.64
2022-12-04T19:31:21.445Z,45.39
2022-12-04T19:33:48.387Z,44.58
2022-12-04T19:36:16.417Z,43.89
2022-12-04T19:38:43.868Z,44.71
2022-12-04T19:41:18.280Z,45.31
2022-12-04T19:43:51.524Z,45.11
2022-12-04T19:46:22.332Z,47.04
2022-12-04T19:48:50.191Z,45.24
2022-12-04T19:51:20.023Z,47.87
2022-12-04T19:53:49.057Z,50.02
2022-12-04T19:56:24.040Z,45.88
2022-12-04T19:58:56.681Z,46.35
2022-12-04T20:01:26.681Z,44.86
2022-12-04T20:03:55.401Z,44.33
2022-12-04T20:06:25.343Z,45.27
2022-12-04T20:09:00.950Z,45.20
2022-12-04T20:11:29.960Z,41.62
2022-12-04T20:14:00.466Z,43.68
2022-12-04T20:16:29.715Z,41.82
2022-12-04T20:18:57.456Z,44.11
2022-12-04T20:21:28.317Z,45.10
2022-12-04T20:23:55.506Z,43.63
2022-12-04T20:26:29.527Z,43.21
2022-12-04T20:28:58.780Z,43.35
2022-12-04T20:31:37.738Z,43.00
2022-12-04T20:34:07.579Z,44.29
2022-12-04T20:36:40.774Z,44.79
2022-12-04T20:39:09.144Z,43.32
2022-12-04T20:41:37.033Z,45.23
2022-12-04T20:44:06.634Z,44.12
2022-12-04T20:46:36.520Z,44.10
2022-12-04T20:49:07.221Z,43.51
2022-12-04T20:51:40.398Z,43.26
2022-12-04T20:54:10.886Z,43.05
2022-12-04T20:56:39.126Z,42.56
2022-12-04T20:59:10.122Z,42.92
2022-12-04T21:01:37.623Z,42.60
2022-12-04T21:04:05.844Z,43.25
2022-12-04T21:06:36.087Z,42.66
2022-12-04T21:09:10.307Z,42.23
2022-12-04T21:11:46.855Z,41.63
2022-12-04T21:14:35.536Z,47.10
2022-12-04T21:17:03.670Z,42.67
2022-12-04T21:19:30.702Z,42.02
2022-12-04T21:21:58.025Z,43.16
2022-12-04T21:24:28.623Z,44.00
2022-12-04T21:26:56.211Z,41.70
2022-12-04T21:29:23.383Z,40.63
2022-12-04T21:31:50.396Z,40.88
2022-12-04T21:34:17.841Z,39.81
2022-12-04T21:36:46.188Z,40.27
2022-12-04T21:39:15.063Z,40.32
2022-12-04T21:42:01.240Z,41.28
2022-12-04T21:44:28.318Z,42.36
2022-12-04T21:46:55.310Z,40.85
2022-12-04T21:49:22.485Z,40.25
2022-12-04T21:51:58.038Z,40.43
2022-12-04T21:54:27.390Z,40.58
2022-12-04T21:56:55.289Z,40.89
2022-12-04T21:59:24.262Z,41.24
2022-12-04T22:01:51.640Z,40.80
2022-12-04T22:04:18.770Z,40.67
2022-12-04T22:06:45.767Z,40.88
2022-12-04T22:09:13.059Z,41.40
2022-12-04T22:11:41.832Z,40.10
2022-12-04T22:14:09.987Z,40.28
2022-12-04T22:16:41.974Z,41.26
2022-12-04T22:19:11.611Z,40.46
2022-12-04T22:21:39.732Z,41.03
2022-12-04T22:24:07.150Z,39.55
2022-12-04T22:26:34.153Z,41.39
2022-12-04T22:29:01.235Z,41.62
2022-12-04T22:31:30.289Z,41.20
2022-12-04T22:33:59.955Z,40.25
2022-12-04T22:36:32.687Z,40.06
2022-12-04T22:39:09.362Z,40.84
2022-12-04T22:41:37.437Z,40.94
2022-12-04T22:44:05.378Z,41.20
2022-12-04T22:46:32.691Z,41.07
2022-12-04T22:49:00.084Z,41.48
2022-12-04T22:51:28.044Z,40.48
2022-12-04T22:53:56.995Z,40.71
2022-12-04T22:56:26.987Z,40.58
2022-12-04T22:58:55.139Z,39.68
2022-12-04T23:01:26.395Z,42.50
2022-12-04T23:03:54.390Z,41.48
2022-12-04T23:06:24.496Z,40.56
2022-12-04T23:09:00.713Z,42.55
2022-12-04T23:11:28.736Z,43.69
2022-12-04T23:14:01.458Z,43.72
2022-12-04T23:16:31.023Z,43.42
2022-12-04T23:18:58.608Z,43.86
2022-12-04T23:21:27.159Z,43.05
2022-12-04T23:23:56.065Z,41.70
2022-12-04T23:26:32.147Z,40.71
2022-12-04T23:29:01.577Z,40.84
2022-12-04T23:31:29.830Z,43.40
2022-12-04T23:33:57.022Z,41.20
2022-12-04T23:36:24.300Z,40.91
2022-12-04T23:38:51.782Z,40.04
2022-12-04T23:41:19.811Z,40.27
2022-12-04T23:43:48.410Z,38.39
2022-12-04T23:46:17.881Z,39.32
2022-12-04T23:48:45.907Z,39.77
2022-12-04T23:51:15.485Z,39.69
2022-12-04T23:53:42.813Z,38.43
2022-12-04T23:56:12.626Z,41.13
2022-12-04T23:58:40.124Z,40.04
